Time;durP1;ratioP1;P1;durP2;ratioP2;P2;SDS_P1;SDS_P2;PMS_P1;PMS_P2;Temp;Humidity;BMP_temperature;BMP_pressure;BME280_temperature;BME280_humidity;BME280_pressure;Samples;Min_cycle;Max_cycle;Signal;HPM_P1;HPM_P2
2023/03/24 00:03:09;;;;;;;8.70;5.90;;;;;;;11.75;65.44;99593.21;125612;1286;116451;-68
2023/03/24 00:20:45;;;;;;;8.00;5.70;;;;;;;11.67;65.71;99585.64;124756;1295;128698;-66
2023/03/24 00:29:10;;;;;;;13.10;6.00;;;;;;;11.69;65.59;99579.29;125324;1297;114650;-70
2023/03/24 00:45:33;;;;;;;9.70;5.20;;;;;;;11.60;65.91;99564.52;123991;1300;115502;-68
2023/03/24 00:53:56;;;;;;;8.70;5.60;;;;;;;11.57;66.19;99553.83;123899;1304;115783;-66
2023/03/24 01:10:48;;;;;;;7.80;5.00;;;;;;;11.57;66.58;99526.41;125164;1287;114982;-62
2023/03/24 02:00:54;;;;;;;9.10;5.30;;;;;;;11.81;67.38;99488.66;123944;1309;113725;-71
2023/03/24 02:23:36;;;;;;;;;;;;;;;;;;;;;
2023/03/24 02:46:40;;;;;;;;;;;;;;;12.45;66.78;99442.27;130338;1264;114746;-68
2023/03/24 02:50:09;;;;;;;8.30;4.50;;;;;;;12.45;66.75;99438.63;129456;1267;127647;-69
2023/03/24 02:53:46;;;;;;;4.40;3.80;;;;;;;12.46;66.96;99428.35;129335;1268;115379;-72
2023/03/24 02:56:53;;;;;;;7.20;4.50;;;;;;;12.49;66.75;99428.23;129491;1280;114772;-72
2023/03/24 03:00:21;;;;;;;6.80;4.50;;;;;;;12.49;66.86;99429.94;129488;1264;115064;-73
2023/03/24 03:03:40;;;;;;;6.80;4.20;;;;;;;12.50;66.69;99424.84;129412;1266;115459;-70
2023/03/24 03:06:46;;;;;;;8.10;4.70;;;;;;;12.51;66.72;99426.40;129504;1275;129050;-70
2023/03/24 03:10:13;;;;;;;6.60;4.20;;;;;;;12.51;66.79;99423.16;129545;1275;115220;-69
2023/03/24 03:13:22;;;;;;;6.80;4.00;;;;;;;12.52;66.92;99420.59;129446;1267;114534;-68
2023/03/24 03:16:42;;;;;;;6.10;3.70;;;;;;;12.53;67.39;99418.75;129535;1285;114822;-68
2023/03/24 03:19:49;;;;;;;6.60;3.90;;;;;;;12.54;67.21;99417.83;129477;1274;114811;-68
2023/03/24 03:23:04;;;;;;;8.80;4.30;;;;;;;12.53;67.68;99421.07;129444;1278;128654;-68
2023/03/24 03:26:11;;;;;;;5.40;4.00;;;;;;;12.53;67.81;99418.60;129403;1267;115213;-69
2023/03/24 03:29:18;;;;;;;7.00;4.50;;;;;;;12.52;67.66;99419.37;129441;1268;114778;-68
2023/03/24 03:32:27;;;;;;;5.50;4.00;;;;;;;12.51;68.18;99417.50;129299;1267;114894;-70
2023/03/24 03:35:39;;;;;;;6.40;4.20;;;;;;;12.50;68.10;99420.23;129507;1268;114832;-68
2023/03/24 03:39:09;;;;;;;4.90;3.50;;;;;;;12.48;68.25;99419.29;129517;1262;128811;-68
2023/03/24 03:42:12;;;;;;;6.70;4.20;;;;;;;12.47;68.51;99423.13;129400;1268;115215;-69
2023/03/24 03:45:14;;;;;;;7.00;4.50;;;;;;;12.46;68.30;99422.84;129396;1279;114752;-69
2023/03/24 03:48:16;;;;;;;7.00;4.00;;;;;;;12.45;68.50;99416.65;129575;1268;114780;-68
2023/03/24 03:51:19;;;;;;;8.00;3.70;;;;;;;12.43;68.91;99411.61;129468;1269;114834;-68
2023/03/24 03:54:22;;;;;;;5.40;3.90;;;;;;;12.41;68.90;99407.25;129445;1266;114744;-68
2023/03/24 03:57:25;;;;;;;5.50;3.80;;;;;;;12.39;68.76;99403.30;129440;1268;114902;-68
2023/03/24 04:00:29;;;;;;;5.60;3.90;;;;;;;12.37;68.74;99403.04;129447;1267;114859;-69
2023/03/24 04:03:49;;;;;;;5.00;3.70;;;;;;;12.35;68.87;99398.20;129476;1271;115216;-69
2023/03/24 04:07:07;;;;;;;5.20;3.70;;;;;;;12.35;68.79;99395.55;129470;1267;114800;-68
2023/03/24 04:10:09;;;;;;;6.10;4.60;;;;;;;12.34;69.33;99394.00;129313;1271;116487;-68
2023/03/24 04:13:16;;;;;;;5.80;4.10;;;;;;;12.34;68.87;99392.05;129373;1268;114744;-68
2023/03/24 04:16:56;;;;;;;7.70;5.30;;;;;;;12.33;69.16;99390.44;129286;1268;116640;-68
2023/03/24 04:20:37;;;;;;;10.20;6.10;;;;;;;12.32;68.99;99391.79;129457;1268;114763;-70
2023/03/24 04:23:48;;;;;;;11.10;5.60;;;;;;;12.32;69.23;99394.48;129523;1264;115276;-70
2023/03/24 04:27:08;;;;;;;10.00;6.00;;;;;;;12.32;69.21;99387.86;129633;1285;115041;-74
2023/03/24 04:30:31;;;;;;;8.50;5.50;;;;;;;12.31;69.19;99384.30;129380;1268;129005;-74
2023/03/24 04:33:45;;;;;;;7.90;4.80;;;;;;;12.31;69.37;99378.44;129581;1284;115373;-73
2023/03/24 04:37:01;;;;;;;6.20;3.90;;;;;;;12.30;69.42;99372.93;129360;1270;114842;-69
2023/03/24 04:40:07;;;;;;;7.50;4.80;;;;;;;12.30;69.40;99367.95;129366;1270;114828;-69
2023/03/24 04:43:13;;;;;;;7.20;4.10;;;;;;;12.29;69.56;99366.73;129692;1281;114825;-68
2023/03/24 04:46:16;;;;;;;12.90;5.50;;;;;;;12.29;69.44;99371.75;129691;1284;129624;-68
2023/03/24 04:49:19;;;;;;;5.30;4.00;;;;;;;12.30;69.59;99376.00;129531;1267;114872;-69
2023/03/24 04:52:21;;;;;;;7.90;4.20;;;;;;;12.29;69.35;99372.08;129515;1262;114745;-68
2023/03/24 04:55:54;;;;;;;5.20;3.90;;;;;;;12.30;69.65;99367.03;129621;1267;114731;-68
2023/03/24 04:58:57;;;;;;;4.30;3.70;;;;;;;12.30;69.37;99362.37;129526;1267;114820;-68
2023/03/24 05:02:00;;;;;;;6.60;3.70;;;;;;;12.30;69.54;99364.36;129504;1265;114861;-69
2023/03/24 05:05:03;;;;;;;7.90;4.10;;;;;;;12.30;69.59;99357.70;129585;1261;128918;-69
2023/03/24 05:08:05;;;;;;;4.80;3.70;;;;;;;12.30;69.83;99347.48;129529;1280;114743;-68
2023/03/24 05:11:07;;;;;;;7.40;5.20;;;;;;;12.32;69.54;99351.34;129606;1268;115760;-68
2023/03/24 05:14:10;;;;;;;5.20;4.30;;;;;;;12.34;69.72;99349.95;129541;1268;114811;-69
2023/03/24 05:17:12;;;;;;;4.50;3.80;;;;;;;12.35;69.56;99341.46;129513;1278;114764;-68
2023/03/24 05:20:14;;;;;;;5.80;3.90;;;;;;;12.36;69.70;99342.59;129575;1267;115246;-70
2023/03/24 05:23:16;;;;;;;6.60;4.20;;;;;;;12.39;69.88;99343.29;129390;1277;114825;-68
2023/03/24 05:26:18;;;;;;;8.00;4.50;;;;;;;12.42;69.80;99348.27;129558;1266;114817;-69
2023/03/24 05:29:20;;;;;;;8.00;3.90;;;;;;;12.44;69.78;99352.04;129702;1267;114821;-68
2023/03/24 05:32:23;;;;;;;6.30;3.90;;;;;;;12.47;69.92;99354.86;129354;1264;115239;-70
2023/03/24 05:35:25;;;;;;;5.90;4.10;;;;;;;12.51;69.86;99356.92;129526;1268;114766;-73
2023/03/24 05:38:28;;;;;;;5.90;4.20;;;;;;;12.53;70.02;99356.94;129439;1268;114820;-70
2023/03/24 05:41:30;;;;;;;5.40;4.10;;;;;;;12.56;69.90;99352.29;129387;1268;114763;-68
2023/03/24 05:44:32;;;;;;;7.30;4.40;;;;;;;12.59;70.09;99351.88;129509;1284;115132;-68
2023/03/24 05:47:34;;;;;;;6.00;4.10;;;;;;;12.62;69.95;99352.95;129615;1264;114767;-70
2023/03/24 05:50:36;;;;;;;7.40;4.00;;;;;;;12.66;69.89;99358.38;129620;1268;128730;-69
2023/03/24 05:53:38;;;;;;;4.70;3.50;;;;;;;12.69;69.99;99349.88;129644;1266;115165;-68
2023/03/24 05:56:40;;;;;;;9.00;4.50;;;;;;;12.74;69.91;99342.17;129535;1268;114877;-69
2023/03/24 05:59:42;;;;;;;6.60;3.70;;;;;;;12.81;70.08;99347.98;129602;1266;114752;-69
2023/03/24 06:02:45;;;;;;;7.20;4.20;;;;;;;12.86;69.92;99351.55;129467;1267;115472;-68
2023/03/24 06:05:48;;;;;;;5.30;3.70;;;;;;;12.89;69.82;99353.56;129591;1269;114837;-69
2023/03/24 06:08:53;;;;;;;4.50;3.40;;;;;;;12.93;69.75;99355.11;129866;1272;114801;-69
2023/03/24 06:11:55;;;;;;;6.60;4.30;;;;;;;12.97;69.82;99352.87;129745;1264;127820;-68
2023/03/24 06:14:57;;;;;;;6.60;4.10;;;;;;;13.01;69.90;99352.89;129809;1272;114886;-69
2023/03/24 06:17:59;;;;;;;4.80;4.10;;;;;;;13.07;69.98;99350.52;129806;1272;114847;-70
2023/03/24 06:21:02;;;;;;;6.30;4.30;;;;;;;13.13;69.87;99348.05;129773;1281;114754;-69
2023/03/24 06:24:05;;;;;;;6.80;4.10;;;;;;;13.20;69.73;99349.48;129746;1274;114732;-70
2023/03/24 06:27:07;;;;;;;6.20;4.30;;;;;;;13.28;69.80;99347.84;130080;1264;114725;-71
2023/03/24 06:30:11;;;;;;;5.70;4.00;;;;;;;13.37;69.71;99344.64;129663;1272;314092;-68
2023/03/24 06:33:13;;;;;;;7.00;3.90;;;;;;;13.45;69.64;99344.59;129880;1262;114760;-70
2023/03/24 06:36:16;;;;;;;8.50;4.30;;;;;;;13.53;69.45;99342.39;129928;1281;115080;-76
2023/03/24 06:39:18;;;;;;;5.20;4.00;;;;;;;13.60;69.39;99345.25;129724;1260;114716;-69
2023/03/24 06:42:22;;;;;;;6.80;4.30;;;;;;;13.67;69.29;99342.35;129698;1264;115411;-70
2023/03/24 06:45:24;;;;;;;9.80;4.10;;;;;;;13.74;69.20;99337.35;129855;1263;115459;-68
2023/03/24 06:48:30;;;;;;;9.50;5.30;;;;;;;13.82;69.23;99337.83;129782;1261;114781;-70
2023/03/24 06:51:32;;;;;;;12.00;6.80;;;;;;;13.91;68.97;99338.75;129832;1281;116365;-69
2023/03/24 06:54:34;;;;;;;14.30;7.90;;;;;;;14.02;69.11;99336.90;129808;1264;114752;-76
2023/03/24 06:57:36;;;;;;;8.40;6.10;;;;;;;14.20;68.98;99335.35;129883;1272;114740;-70
2023/03/24 07:00:38;;;;;;;8.10;4.70;;;;;;;14.37;69.18;99339.02;129964;1272;114740;-70
2023/03/24 07:03:41;;;;;;;5.30;4.20;;;;;;;14.48;68.49;99338.98;129896;1267;114742;-68
2023/03/24 07:06:44;;;;;;;6.80;4.00;;;;;;;14.58;68.43;99339.85;129797;1264;114880;-71
2023/03/24 07:09:46;;;;;;;5.60;4.10;;;;;;;14.67;68.64;99334.79;129905;1261;114799;-68
2023/03/24 07:12:49;;;;;;;5.90;3.60;;;;;;;14.76;68.44;99334.67;129926;1264;114758;-70
2023/03/24 07:15:51;;;;;;;7.20;4.00;;;;;;;14.81;68.66;99332.75;130110;1272;115405;-69
2023/03/24 07:18:53;;;;;;;6.10;4.00;;;;;;;14.86;68.51;99330.00;129957;1258;115171;-69
2023/03/24 07:21:55;;;;;;;7.00;4.20;;;;;;;14.89;68.53;99334.12;130043;1272;114804;-69
2023/03/24 07:25:00;;;;;;;6.50;4.30;;;;;;;14.91;68.84;99333.20;130016;1267;115155;-69
2023/03/24 07:28:13;;;;;;;6.10;4.90;;;;;;;14.95;69.07;99329.60;129759;1281;127276;-68
2023/03/24 07:31:26;;;;;;;6.40;4.30;;;;;;;15.06;69.05;99331.63;130061;1264;115398;-69
2023/03/24 07:35:26;;;;;;;;;;;;;;;;;;;;;
2023/03/24 07:38:35;;;;;;;5.40;4.40;;;;;;;15.28;69.03;99319.52;130239;1263;114916;-70
2023/03/24 07:41:37;;;;;;;7.50;4.50;;;;;;;15.36;69.18;99317.03;129869;1281;115250;-68
2023/03/24 07:44:46;;;;;;;7.60;4.50;;;;;;;15.42;69.15;99311.87;130142;1264;116452;-69
2023/03/24 07:48:00;;;;;;;9.80;5.40;;;;;;;15.42;68.52;99310.63;129602;1281;127610;-69
2023/03/24 07:51:03;;;;;;;7.10;4.60;;;;;;;15.38;68.53;99310.45;129709;1264;115268;-71
2023/03/24 07:54:10;;;;;;;10.60;5.20;;;;;;;15.31;68.36;99310.06;129905;1261;114708;-70
2023/03/24 07:57:12;;;;;;;5.60;4.60;;;;;;;15.25;68.19;99310.92;130050;1280;114745;-70
2023/03/24 08:00:18;;;;;;;6.00;4.00;;;;;;;15.21;68.11;99311.16;130016;1281;115177;-68
2023/03/24 08:03:24;;;;;;;6.10;4.70;;;;;;;15.14;68.20;99306.45;129917;1281;115344;-72
2023/03/24 08:06:26;;;;;;;5.20;4.50;;;;;;;15.07;68.36;99300.25;129823;1261;128969;-69
2023/03/24 08:09:28;;;;;;;6.40;4.50;;;;;;;15.02;68.40;99295.60;129915;1259;114926;-70
2023/03/24 08:12:30;;;;;;;6.80;4.50;;;;;;;14.97;68.15;99288.34;130074;1261;115130;-70
2023/03/24 08:15:32;;;;;;;7.50;4.70;;;;;;;14.92;68.33;99288.72;129828;1261;114735;-71
2023/03/24 08:18:37;;;;;;;6.90;5.20;;;;;;;14.89;68.20;99287.73;129750;1275;114843;-70
2023/03/24 08:21:39;;;;;;;8.30;5.30;;;;;;;14.85;68.57;99282.10;129777;1272;114834;-70
2023/03/24 08:24:41;;;;;;;5.60;4.40;;;;;;;14.82;68.34;99282.59;129575;1260;114841;-70
2023/03/24 08:27:46;;;;;;;7.10;4.40;;;;;;;14.81;68.70;99277.05;129879;1264;114747;-71
2023/03/24 08:30:48;;;;;;;10.50;4.90;;;;;;;14.83;68.98;99279.73;129895;1263;115139;-72
2023/03/24 08:33:52;;;;;;;9.10;5.00;;;;;;;14.91;69.19;99277.11;129747;1272;114737;-71
2023/03/24 08:36:55;;;;;;;7.00;5.40;;;;;;;15.02;69.24;99268.79;129815;1264;114959;-69
2023/03/24 08:39:57;;;;;;;7.10;5.00;;;;;;;15.22;69.59;99266.23;129771;1277;114714;-70
2023/03/24 08:43:02;;;;;;;7.00;4.80;;;;;;;15.52;69.87;99263.17;129746;1260;114828;-70
2023/03/24 08:46:07;;;;;;;6.40;4.50;;;;;;;15.88;69.44;99253.75;129853;1264;115542;-70
2023/03/24 08:49:09;;;;;;;8.10;4.20;;;;;;;16.25;68.95;99249.17;129475;1261;114834;-70
2023/03/24 08:52:12;;;;;;;5.80;3.90;;;;;;;16.58;68.64;99249.33;129725;1260;115193;-70
2023/03/24 08:55:15;;;;;;;4.90;4.00;;;;;;;16.85;68.30;99245.59;129501;1264;114791;-68
2023/03/24 08:58:19;;;;;;;5.10;3.70;;;;;;;17.10;67.76;99242.39;129835;1264;114811;-70
2023/03/24 09:01:22;;;;;;;10.70;3.90;;;;;;;17.25;66.90;99239.67;129796;1264;114743;-68
2023/03/24 09:04:25;;;;;;;4.50;3.50;;;;;;;17.35;66.41;99234.92;129805;1264;114853;-66
2023/03/24 09:07:27;;;;;;;7.10;3.60;;;;;;;17.39;65.81;99232.06;129892;1263;114786;-67
2023/03/24 09:10:29;;;;;;;6.60;3.90;;;;;;;17.46;65.88;99226.89;129855;1263;114938;-66
2023/03/24 09:13:31;;;;;;;5.40;3.30;;;;;;;17.56;65.11;99225.02;129833;1264;115072;-69
2023/03/24 09:16:34;;;;;;;4.90;2.90;;;;;;;17.61;64.81;99223.24;129855;1264;114795;-67
2023/03/24 09:19:36;;;;;;;4.90;3.20;;;;;;;17.70;64.52;99216.86;129872;1263;115368;-67
2023/03/24 09:22:41;;;;;;;3.80;2.90;;;;;;;17.85;64.41;99214.65;129509;1265;115196;-66
2023/03/24 09:25:43;;;;;;;5.80;3.40;;;;;;;18.02;64.30;99212.85;129783;1263;115048;-68
2023/03/24 09:28:45;;;;;;;4.20;3.10;;;;;;;18.22;64.17;99204.37;129916;1264;114776;-67
2023/03/24 09:31:48;;;;;;;4.60;3.40;;;;;;;18.41;63.97;99200.52;129990;1264;114778;-67
2023/03/24 09:34:50;;;;;;;6.90;3.30;;;;;;;18.55;63.11;99196.56;130000;1264;114989;-66
2023/03/24 09:37:54;;;;;;;3.90;2.90;;;;;;;18.59;62.84;99188.98;129740;1260;127957;-68
2023/03/24 09:41:01;;;;;;;5.50;3.30;;;;;;;18.64;62.74;99185.70;129827;1264;114932;-76
2023/03/24 09:44:14;;;;;;;8.70;3.70;;;;;;;18.71;62.70;99181.81;129641;1281;114799;-67
2023/03/24 09:47:19;;;;;;;6.00;3.10;;;;;;;18.76;62.46;99175.69;129896;1259;114805;-68
2023/03/24 09:50:25;;;;;;;7.30;3.50;;;;;;;18.78;62.20;99176.51;130040;1263;114761;-66
2023/03/24 09:53:40;;;;;;;4.10;2.90;;;;;;;18.79;62.03;99171.60;130050;1260;128011;-66
2023/03/24 09:56:45;;;;;;;5.10;2.60;;;;;;;18.73;61.26;99167.63;130037;1263;115258;-65
2023/03/24 09:59:47;;;;;;;3.50;2.60;;;;;;;18.62;61.07;99168.35;129925;1258;114877;-65
2023/03/24 10:02:50;;;;;;;5.30;2.90;;;;;;;18.52;61.10;99163.23;129992;1260;114712;-64
2023/03/24 10:05:57;;;;;;;6.70;2.40;;;;;;;18.43;60.99;99165.98;129613;1274;115788;-65
2023/03/24 10:09:18;;;;;;;4.80;2.30;;;;;;;18.32;60.80;99159.84;129673;1259;128859;-66
2023/03/24 10:12:38;;;;;;;6.80;2.60;;;;;;;18.27;60.77;99157.42;129362;1280;116711;-65
2023/03/24 10:16:03;;;;;;;4.80;2.70;;;;;;;18.28;61.02;99147.37;129359;1275;114953;-66
2023/03/24 10:19:24;;;;;;;4.50;2.80;;;;;;;18.36;60.82;99146.92;129599;1261;114758;-66
2023/03/24 10:22:50;;;;;;;3.10;2.70;;;;;;;18.39;60.59;99140.85;129882;1264;115224;-64
2023/03/24 10:26:18;;;;;;;3.00;2.40;;;;;;;18.43;60.01;99133.26;129299;1280;128583;-67
2023/03/24 10:29:24;;;;;;;4.40;2.50;;;;;;;18.50;60.14;99130.57;129169;1271;116557;-64
2023/03/24 10:32:28;;;;;;;7.10;2.00;;;;;;;18.61;59.90;99128.48;129653;1274;115221;-65
2023/03/24 10:35:35;;;;;;;7.00;2.30;;;;;;;18.75;59.46;99124.70;129299;1260;114778;-66
2023/03/24 10:38:37;;;;;;;4.60;2.30;;;;;;;18.90;59.27;99117.77;129363;1263;114735;-66
2023/03/24 10:41:40;;;;;;;5.60;2.50;;;;;;;19.12;59.01;99112.83;129935;1259;114763;-66
2023/03/24 10:44:42;;;;;;;3.80;2.30;;;;;;;19.33;58.48;99107.44;129650;1264;114887;-65
2023/03/24 10:47:46;;;;;;;6.10;2.30;;;;;;;19.49;57.96;99106.29;129582;1264;114791;-65
2023/03/24 10:50:48;;;;;;;3.50;2.40;;;;;;;19.63;56.84;99102.58;129909;1263;114765;-66
2023/03/24 10:53:50;;;;;;;3.20;2.40;;;;;;;19.81;56.61;99103.95;129897;1264;114763;-65
2023/03/24 10:57:05;;;;;;;4.60;2.20;;;;;;;20.03;56.31;99104.38;129257;1265;114752;-65
2023/03/24 11:00:17;;;;;;;4.30;2.00;;;;;;;20.31;56.39;99103.27;129566;1264;128519;-65
2023/03/24 11:03:27;;;;;;;3.90;2.50;;;;;;;20.58;55.47;99103.55;129891;1257;115248;-65
2023/03/24 11:06:30;;;;;;;3.60;2.20;;;;;;;20.76;54.64;99102.03;129955;1263;115202;-67
2023/03/24 11:09:44;;;;;;;10.30;1.80;;;;;;;20.87;53.91;99102.95;129772;1265;114758;-66
2023/03/24 11:12:52;;;;;;;2.70;2.10;;;;;;;20.87;53.29;99107.67;129749;1274;114771;-67
2023/03/24 11:16:09;;;;;;;4.70;1.90;;;;;;;20.84;52.98;99107.81;129565;1264;127137;-66
2023/03/24 11:19:17;;;;;;;4.10;2.40;;;;;;;20.81;52.89;99106.89;129467;1281;114667;-67
2023/03/24 11:22:20;;;;;;;5.00;2.30;;;;;;;20.78;52.18;99107.52;129862;1264;114721;-66
2023/03/24 11:25:31;;;;;;;3.90;2.80;;;;;;;20.77;51.94;99098.80;129951;1264;114794;-65
2023/03/24 11:28:40;;;;;;;3.10;2.10;;;;;;;20.76;51.67;99106.11;129717;1276;114750;-67
2023/03/24 11:31:50;;;;;;;3.30;2.50;;;;;;;20.77;51.62;99100.10;129785;1274;128520;-69
2023/03/24 11:35:10;;;;;;;4.70;2.20;;;;;;;20.76;51.70;99095.67;129952;1281;115247;-71
2023/03/24 11:38:17;;;;;;;6.30;2.30;;;;;;;20.71;51.37;99089.00;129798;1259;114768;-70
2023/03/24 11:41:21;;;;;;;3.20;2.60;;;;;;;20.65;51.25;99090.09;129566;1267;114947;-70
2023/03/24 11:44:24;;;;;;;3.10;2.40;;;;;;;20.59;51.02;99084.41;129858;1264;114746;-74
2023/03/24 11:47:31;;;;;;;3.90;2.40;;;;;;;20.57;51.14;99082.88;129891;1264;128092;-74
2023/03/24 11:50:37;;;;;;;4.30;2.60;;;;;;;20.52;51.07;99077.84;129559;1268;115216;-72
2023/03/24 11:53:49;;;;;;;4.50;2.10;;;;;;;20.44;51.27;99077.75;129864;1258;114827;-72
2023/03/24 11:56:55;;;;;;;4.30;2.50;;;;;;;20.37;51.29;99078.20;129589;1267;116496;-72
2023/03/24 12:00:08;;;;;;;6.70;2.30;;;;;;;20.35;51.60;99074.05;129898;1264;114909;-73
2023/03/24 12:03:26;;;;;;;4.90;2.60;;;;;;;20.41;51.70;99065.78;129883;1260;129653;-71
2023/03/24 12:06:47;;;;;;;5.10;2.90;;;;;;;20.43;51.59;99059.15;129756;1264;115281;-72
2023/03/24 12:09:52;;;;;;;2.80;2.50;;;;;;;20.41;51.46;99058.70;129674;1263;114902;-70
2023/03/24 12:13:23;;;;;;;8.10;3.30;;;;;;;20.36;51.37;99055.25;129827;1262;114765;-72
2023/03/24 12:16:33;;;;;;;6.80;3.30;;;;;;;20.27;51.39;99058.09;129767;1259;114785;-74
2023/03/24 12:19:36;;;;;;;4.50;2.40;;;;;;;20.17;51.39;99056.46;129920;1270;127073;-72
2023/03/24 12:23:17;;;;;;;6.20;2.60;;;;;;;20.05;51.21;99060.67;130034;1259;115363;-74
2023/03/24 12:26:32;;;;;;;6.60;2.90;;;;;;;19.96;51.44;99062.36;129892;1259;114839;-71
2023/03/24 12:29:51;;;;;;;3.60;2.70;;;;;;;19.84;51.47;99055.08;129871;1264;114938;-71
2023/03/24 12:33:22;;;;;;;6.30;3.90;;;;;;;19.70;51.44;99058.92;129867;1281;114764;-73
2023/03/24 12:37:14;;;;;;;7.00;4.40;;;;;;;19.57;51.87;99060.74;130341;1259;129517;-72
2023/03/24 12:41:07;;;;;;;4.20;3.50;;;;;;;19.43;52.17;99061.11;130260;1262;115347;-75
2023/03/24 12:45:04;;;;;;;3.70;3.10;;;;;;;19.28;52.26;99061.02;130472;1265;115220;-74
2023/03/24 12:48:42;;;;;;;7.50;3.40;;;;;;;19.17;52.56;99058.89;129681;1263;114856;-75
2023/03/24 12:52:00;;;;;;;4.30;3.30;;;;;;;19.06;52.56;99052.86;129716;1264;114679;-74
2023/03/24 12:55:33;;;;;;;4.80;3.30;;;;;;;18.95;52.67;99051.08;129758;1264;127924;-72
2023/03/24 12:58:45;;;;;;;5.50;4.00;;;;;;;18.84;52.75;99052.20;130010;1281;114828;-72
2023/03/24 13:01:57;;;;;;;5.70;3.30;;;;;;;18.73;52.93;99048.99;129805;1264;114848;-73
2023/03/24 13:05:04;;;;;;;4.30;3.40;;;;;;;18.64;53.26;99045.95;129887;1281;114825;-73
2023/03/24 13:08:22;;;;;;;7.40;5.00;;;;;;;18.57;53.45;99041.60;129861;1263;114731;-74
2023/03/24 13:11:38;;;;;;;9.40;4.10;;;;;;;18.51;53.72;99038.24;129651;1265;127878;-71
2023/03/24 13:15:05;;;;;;;6.20;3.80;;;;;;;18.47;54.03;99034.88;129777;1259;115257;-73
2023/03/24 13:18:16;;;;;;;4.10;3.40;;;;;;;18.43;54.54;99027.45;129835;1264;114736;-72
2023/03/24 13:21:21;;;;;;;6.90;3.50;;;;;;;18.41;55.06;99030.20;129893;1261;114760;-73
2023/03/24 13:24:24;;;;;;;5.30;3.30;;;;;;;18.39;55.55;99027.02;129906;1269;114773;-73
2023/03/24 13:27:32;;;;;;;7.60;3.80;;;;;;;18.34;56.12;99022.43;129898;1259;128829;-73
2023/03/24 13:30:37;;;;;;;5.70;3.50;;;;;;;18.28;56.24;99019.59;129639;1269;116614;-71
2023/03/24 13:33:42;;;;;;;5.30;4.40;;;;;;;18.21;56.32;99015.61;129656;1269;114935;-71
2023/03/24 13:36:48;;;;;;;3.50;3.10;;;;;;;18.12;56.39;99016.15;129726;1259;114771;-72
2023/03/24 13:39:55;;;;;;;4.70;3.30;;;;;;;18.03;56.72;99011.16;130048;1261;114822;-73
2023/03/24 13:43:07;;;;;;;5.20;3.60;;;;;;;17.93;56.75;99008.27;129861;1263;128435;-74
2023/03/24 13:46:13;;;;;;;5.70;3.50;;;;;;;17.86;57.03;99004.52;129797;1264;114770;-71
2023/03/24 13:49:15;;;;;;;6.20;3.50;;;;;;;17.80;57.36;99005.06;129840;1263;114823;-74
2023/03/24 13:52:32;;;;;;;5.00;3.70;;;;;;;17.72;57.41;99003.31;129686;1263;114825;-73
2023/03/24 13:55:38;;;;;;;5.00;3.50;;;;;;;17.67;57.75;99002.48;129817;1264;115383;-74
2023/03/24 13:59:06;;;;;;;5.50;2.90;;;;;;;17.59;57.96;99000.45;129680;1264;127570;-71
2023/03/24 14:02:17;;;;;;;5.50;3.90;;;;;;;17.54;58.11;99001.73;129820;1282;115198;-72
2023/03/24 14:06:00;;;;;;;4.90;3.60;;;;;;;17.49;58.30;99006.21;129800;1260;115290;-72
2023/03/24 14:09:20;;;;;;;8.60;4.90;;;;;;;17.44;59.03;99008.88;129647;1264;114734;-71
2023/03/24 14:12:23;;;;;;;13.40;5.70;;;;;;;17.39;59.43;99008.79;129697;1261;114793;-72
2023/03/24 14:15:28;;;;;;;12.90;8.20;;;;;;;17.36;60.20;99004.79;129770;1261;114772;-71
2023/03/24 14:18:30;;;;;;;;;;;;;;;17.32;60.29;99001.88;129691;1260;114773;-71
2023/03/24 14:21:33;;;;;;;15.00;8.30;;;;;;;17.32;60.98;98997.40;129755;1261;114816;-70
2023/03/24 14:24:36;;;;;;;12.80;8.90;;;;;;;17.35;61.01;98991.01;129744;1264;114817;-72
2023/03/24 14:27:43;;;;;;;13.10;9.30;;;;;;;17.39;61.48;98990.44;129707;1279;114838;-72
2023/03/24 14:31:00;;;;;;;18.60;10.20;;;;;;;17.42;61.61;98989.77;129613;1264;129092;-74
2023/03/24 14:34:05;;;;;;;17.50;11.00;;;;;;;17.43;61.83;98986.55;129706;1264;114896;-73
2023/03/24 14:37:09;;;;;;;14.90;11.40;;;;;;;17.43;62.04;98985.45;129731;1264;114752;-75
2023/03/24 14:40:48;;;;;;;12.10;8.20;;;;;;;17.43;62.17;98987.31;129615;1260;115340;-73
2023/03/24 14:43:54;;;;;;;9.60;6.30;;;;;;;17.40;62.28;98992.11;129744;1282;114778;-72
2023/03/24 14:46:57;;;;;;;10.70;6.30;;;;;;;17.36;61.92;98994.34;129891;1259;126624;-72
2023/03/24 14:50:02;;;;;;;8.30;4.90;;;;;;;17.30;61.88;98998.09;129829;1259;115114;-71
2023/03/24 14:53:06;;;;;;;7.00;4.70;;;;;;;17.26;61.65;98994.90;129538;1264;114802;-74
2023/03/24 14:56:13;;;;;;;8.70;5.40;;;;;;;17.24;61.69;98992.58;129595;1267;114774;-75
2023/03/24 14:59:29;;;;;;;10.20;5.10;;;;;;;17.22;61.35;98992.76;129734;1264;114807;-74
2023/03/24 15:02:37;;;;;;;6.00;4.60;;;;;;;17.24;61.46;98993.69;129740;1259;127864;-72
2023/03/24 15:05:39;;;;;;;7.70;4.60;;;;;;;17.29;61.07;98991.77;129610;1259;116668;-72
2023/03/24 15:09:04;;;;;;;5.90;3.40;;;;;;;17.34;60.67;98989.81;130010;1261;114827;-71
2023/03/24 15:12:06;;;;;;;7.30;3.80;;;;;;;17.36;60.19;98981.34;129904;1281;114775;-75
2023/03/24 15:15:22;;;;;;;6.30;3.30;;;;;;;17.35;59.98;98979.95;129734;1281;114739;-73
2023/03/24 15:18:25;;;;;;;7.20;3.20;;;;;;;17.33;59.77;98978.88;129914;1264;128178;-74
2023/03/24 15:21:34;;;;;;;9.00;3.10;;;;;;;17.31;59.57;98973.65;129737;1281;114813;-73
2023/03/24 15:24:37;;;;;;;7.00;4.10;;;;;;;17.30;59.47;98965.08;129765;1259;114759;-75
2023/03/24 15:27:40;;;;;;;4.40;3.60;;;;;;;17.33;59.17;98964.31;129874;1281;114835;-73
2023/03/24 15:30:43;;;;;;;9.20;3.50;;;;;;;17.36;59.05;98955.29;129734;1281;116517;-72
2023/03/24 15:33:46;;;;;;;8.80;3.10;;;;;;;17.42;58.93;98952.91;129677;1259;114881;-74
2023/03/24 15:36:56;;;;;;;5.20;2.90;;;;;;;17.48;58.89;98957.20;129749;1259;114760;-75
2023/03/24 15:39:59;;;;;;;5.70;2.50;;;;;;;17.53;58.50;98959.92;129723;1280;114761;-74
2023/03/24 15:43:05;;;;;;;7.50;3.10;;;;;;;17.56;58.25;98964.55;129851;1264;115030;-72
2023/03/24 15:46:19;;;;;;;5.50;2.40;;;;;;;17.57;58.24;98957.15;129765;1281;114848;-75
2023/03/24 15:49:25;;;;;;;7.80;3.00;;;;;;;17.57;58.10;98947.60;129791;1280;128857;-75
2023/03/24 15:52:34;;;;;;;5.40;2.90;;;;;;;17.55;57.72;98942.35;129657;1264;115280;-72
2023/03/24 15:55:36;;;;;;;5.00;2.70;;;;;;;17.54;57.90;98954.25;129819;1259;114771;-72
2023/03/24 15:59:02;;;;;;;3.80;2.60;;;;;;;17.52;57.76;98962.79;129686;1259;114790;-72
2023/03/24 16:02:17;;;;;;;7.20;2.60;;;;;;;17.48;57.57;98960.78;129641;1281;114825;-73
2023/03/24 16:05:27;;;;;;;4.50;3.40;;;;;;;17.43;57.45;98954.83;129855;1259;127707;-71
2023/03/24 16:08:37;;;;;;;4.40;2.90;;;;;;;17.38;57.37;98951.82;129766;1265;114694;-72
2023/03/24 16:11:41;;;;;;;5.50;2.80;;;;;;;17.34;57.37;98946.45;129816;1260;114718;-72
2023/03/24 16:14:43;;;;;;;10.80;2.80;;;;;;;17.31;57.34;98959.05;129675;1266;114734;-72
2023/03/24 16:17:46;;;;;;;4.60;2.80;;;;;;;17.26;57.40;98963.48;129817;1273;114816;-74
2023/03/24 16:20:51;;;;;;;6.40;3.60;;;;;;;17.23;57.35;98954.97;129595;1261;114824;-72
2023/03/24 16:23:55;;;;;;;13.60;3.00;;;;;;;17.19;57.37;98967.86;129932;1263;114744;-72
2023/03/24 16:26:57;;;;;;;9.00;4.70;;;;;;;17.13;57.31;98961.16;129825;1261;114736;-74
2023/03/24 16:30:00;;;;;;;7.40;3.20;;;;;;;17.08;57.16;98960.53;129777;1261;114854;-74
2023/03/24 16:33:03;;;;;;;3.10;2.10;;;;;;;17.05;57.26;98966.65;129739;1259;115362;-72
2023/03/24 16:36:06;;;;;;;5.00;2.10;;;;;;;17.00;57.16;98964.98;129796;1264;114741;-72
2023/03/24 16:39:20;;;;;;;3.30;2.20;;;;;;;16.95;57.07;98964.76;129848;1264;114734;-73
2023/03/24 16:42:22;;;;;;;3.10;2.40;;;;;;;16.89;57.07;98970.83;129759;1264;115201;-71
2023/03/24 16:45:24;;;;;;;2.30;1.90;;;;;;;16.83;56.99;98966.95;129751;1277;115192;-75
2023/03/24 16:48:26;;;;;;;6.60;2.30;;;;;;;16.76;57.01;98972.35;129814;1281;114822;-76
2023/03/24 16:51:29;;;;;;;6.80;2.50;;;;;;;16.68;57.03;98969.48;129768;1263;114816;-75